»·PEaware :: N32314 KCRQ-KSNA

N32314 :: KCRQ-KSNA

FLIGHT INFORMATION

Flight Status: Arrived
Operator: Privately registered:
United States
More flights under this callsign
Pilot: John O. (31453)
Aircraft: CESSNA 172 SKYHAWK
(C172)
More flights by this aircraft type
Origin: KCRQ McClellan-Palomar
United States
Destination: KSNA John Wayne-Orange Co
United States
More flights between these airports :: More routes between these airports
Route:
File this flight plan on PilotEdge
Remarks:
Altitude:
(Current/Filed)
0ft
Speed:
(Current/Filed)
0kts
Departed: 13-Jan-21 08:14 AM
Arrived: 13-Jan-21 08:44 AM
Distance/Time
Traveled:
44nm/0:30
Distance/Time
To Go:
Arrived

Flight Plot

Page will automatically refresh every two minutes.


Map Options




Map Legend


Flown Route
Filed Route
Departure Airport
Arrival Airport
Navaid (VOR, NDB)
Fix

Horizontal Profiles

Position Reports

Time Latitude Longitude Heading Altitude Ground
Speed
13-Jan-21 08:08 33.127971 -117.274570 0 329ft 0kts
13-Jan-21 08:09 33.128469 -117.273574 79 331ft 11kts
13-Jan-21 08:10 33.128651 -117.272354 358 329ft 0kts
13-Jan-21 08:11 33.128651 -117.272354 358 329ft 0kts
13-Jan-21 08:12 33.128851 -117.272379 349 329ft 12kts
13-Jan-21 08:13 33.127399 -117.285428 258 498ft 86kts
13-Jan-21 08:14 33.121880 -117.313929 248 1345ft 91kts
13-Jan-21 08:15 33.122082 -117.342665 304 2099ft 95kts
13-Jan-21 08:16 33.138621 -117.368060 310 2793ft 98kts
13-Jan-21 08:17 33.156001 -117.394435 311 3391ft 102kts
13-Jan-21 08:18 33.174137 -117.420817 312 3990ft 102kts
13-Jan-21 08:19 33.192106 -117.446606 312 4588ft 100kts
13-Jan-21 08:20 33.209724 -117.471827 315 5189ft 97kts
13-Jan-21 08:21 33.228619 -117.494913 318 5791ft 97kts
13-Jan-21 08:22 33.247820 -117.517907 318 6381ft 98kts
13-Jan-21 08:23 33.269872 -117.543765 319 6512ft 121kts
13-Jan-21 08:25 33.293028 -117.570837 319 6513ft 106kts
13-Jan-21 08:26 33.313489 -117.595115 319 6521ft 103kts
13-Jan-21 08:27 33.334147 -117.619536 319 6529ft 104kts
13-Jan-21 08:28 33.354981 -117.644080 319 6527ft 105kts
13-Jan-21 08:29 33.376954 -117.667231 328 6502ft 104kts
13-Jan-21 08:30 33.402808 -117.684327 337 6253ft 111kts
13-Jan-21 08:31 33.431166 -117.700792 337 5750ft 113kts
13-Jan-21 08:32 33.459763 -117.717217 337 5247ft 114kts
13-Jan-21 08:33 33.488078 -117.733413 337 4743ft 110kts
13-Jan-21 08:34 33.515400 -117.749047 337 4232ft 108kts
13-Jan-21 08:35 33.541194 -117.764027 336 3634ft 100kts
13-Jan-21 08:36 33.566010 -117.778738 336 3034ft 99kts
13-Jan-21 08:37 33.590927 -117.793476 336 2443ft 99kts
13-Jan-21 08:38 33.614580 -117.807382 336 2032ft 95kts
13-Jan-21 08:39 33.638089 -117.823671 323 1528ft 99kts
13-Jan-21 08:40 33.659740 -117.843321 350 1063ft 93kts
13-Jan-21 08:41 33.679125 -117.830831 41 994ft 77kts
13-Jan-21 08:42 33.695151 -117.843956 302 735ft 77kts
13-Jan-21 08:42 33.688739 -117.858679 205 262ft 70kts
13-Jan-21 08:43 33.676924 -117.865716 120 54ft 10kts
13-Jan-21 08:44 33.676877 -117.865611 115 53ft 0kts
13-Jan-21 08:46 33.676876 -117.865611 115 53ft 0kts
13-Jan-21 08:46 33.674164 -117.867067 208 59ft 14kts
13-Jan-21 08:47 33.672362 -117.866516 208 55ft 0kts
13-Jan-21 08:48 33.672362 -117.866516 208 55ft 0kts
13-Jan-21 08:49 33.672362 -117.866516 208 55ft 0kts
13-Jan-21 08:50 33.672362 -117.866516 208 55ft 0kts
13-Jan-21 08:51 33.672362 -117.866516 208 55ft 0kts
13-Jan-21 08:52 33.672362 -117.866516 208 55ft 0kts
13-Jan-21 08:53 33.672362 -117.866516 208 55ft 0kts
13-Jan-21 08:54 33.672362 -117.866516 208 55ft 0kts
13-Jan-21 08:55 33.672362 -117.866516 208 55ft 0kts
13-Jan-21 08:56 33.672362 -117.866516 208 55ft 0kts
13-Jan-21 08:57 33.672362 -117.866516 208 55ft 0kts

Navigation Log

Ident Type
Flight plan parsing failed, navigation log unavailable